Time;durP1;ratioP1;P1;durP2;ratioP2;P2;SDS_P1;SDS_P2;PMS_P1;PMS_P2;Temp;Humidity;BMP_temperature;BMP_pressure;BME280_temperature;BME280_humidity;BME280_pressure;Samples;Min_cycle;Max_cycle;Signal;HPM_P1;HPM_P2
2023/12/31 00:02:04;;;;;;;12.05;5.10;;;;;;;;;;5099041;27;20039;-63
2023/12/31 00:04:30;;;;;;;15.60;5.00;;;;;;;;;;5118134;27;20062;-63
2023/12/31 00:06:56;;;;;;;7.25;4.45;;;;;;;;;;5114594;27;20067;-63
2023/12/31 00:09:22;;;;;;;9.50;4.97;;;;;;;;;;5098062;28;20677;-63
2023/12/31 00:11:48;;;;;;;10.77;4.47;;;;;;;;;;5115355;27;20463;-63
2023/12/31 00:14:15;;;;;;;10.93;4.95;;;;;;;;;;5097394;28;20107;-63
2023/12/31 00:16:41;;;;;;;7.75;4.35;;;;;;;;;;5121688;27;20443;-63
2023/12/31 00:19:07;;;;;;;10.13;4.35;;;;;;;;;;5123411;27;20154;-63
2023/12/31 00:21:33;;;;;;;8.73;4.53;;;;;;;;;;5103026;28;20051;-64
2023/12/31 00:23:59;;;;;;;8.23;3.92;;;;;;;;;;5125922;27;20050;-63
2023/12/31 00:26:25;;;;;;;7.60;3.88;;;;;;;;;;5122001;27;20172;-63
2023/12/31 00:28:52;;;;;;;10.90;4.10;;;;;;;;;;5125990;27;20115;-63
2023/12/31 00:31:18;;;;;;;7.85;3.95;;;;;;;;;;5121829;27;20128;-63
2023/12/31 00:33:44;;;;;;;8.45;4.38;;;;;;;;;;5118195;27;20390;-63
2023/12/31 00:36:10;;;;;;;7.13;4.00;;;;;;;;;;5119006;27;20046;-63
2023/12/31 00:38:37;;;;;;;10.43;3.75;;;;;;;;;;5100638;27;20375;-63
2023/12/31 00:41:03;;;;;;;9.25;3.78;;;;;;;;;;5122245;27;20040;-63
2023/12/31 00:43:29;;;;;;;7.35;4.15;;;;;;;;;;5120167;27;20528;-63
2023/12/31 00:45:56;;;;;;;7.97;4.40;;;;;;;;;;5119438;27;20047;-63
2023/12/31 00:48:22;;;;;;;6.70;3.92;;;;;;;;;;5100238;27;20180;-64
2023/12/31 00:50:48;;;;;;;7.85;3.70;;;;;;;;;;5121485;27;20047;-63
2023/12/31 00:53:14;;;;;;;7.45;4.78;;;;;;;;;;5123927;27;20051;-63
2023/12/31 00:55:40;;;;;;;8.02;4.53;;;;;;;;;;5101802;27;20039;-64
2023/12/31 00:58:07;;;;;;;6.43;3.67;;;;;;;;;;5105297;27;20054;-63
2023/12/31 01:00:33;;;;;;;6.75;3.80;;;;;;;;;;5104135;27;20514;-63
2023/12/31 01:02:59;;;;;;;7.47;3.70;;;;;;;;;;5102461;27;20125;-63
2023/12/31 01:05:25;;;;;;;10.90;4.15;;;;;;;;;;5105164;27;20050;-63
2023/12/31 01:07:51;;;;;;;7.30;4.05;;;;;;;;;;5121554;27;20040;-63
2023/12/31 01:10:18;;;;;;;8.05;4.40;;;;;;;;;;5101078;27;20064;-63
2023/12/31 01:12:44;;;;;;;10.18;3.60;;;;;;;;;;5103379;27;20110;-63
2023/12/31 01:15:10;;;;;;;8.73;4.30;;;;;;;;;;5103250;27;20051;-63
2023/12/31 01:17:36;;;;;;;9.05;4.13;;;;;;;;;;5102585;27;20157;-63
2023/12/31 01:20:04;;;;;;;7.72;3.90;;;;;;;;;;5102464;27;20043;-63
2023/12/31 01:22:30;;;;;;;6.72;3.47;;;;;;;;;;5121503;27;20074;-63
2023/12/31 01:24:56;;;;;;;7.32;3.70;;;;;;;;;;5124018;27;20039;-63
2023/12/31 01:27:22;;;;;;;7.93;3.83;;;;;;;;;;5104780;27;20039;-63
2023/12/31 01:29:49;;;;;;;7.03;3.60;;;;;;;;;;5102321;27;20566;-63
2023/12/31 01:32:15;;;;;;;9.68;3.45;;;;;;;;;;5103039;27;20073;-63
2023/12/31 01:34:41;;;;;;;7.90;3.50;;;;;;;;;;5102079;27;20047;-63
2023/12/31 01:37:07;;;;;;;9.93;3.55;;;;;;;;;;5102531;27;20538;-63
2023/12/31 01:39:33;;;;;;;7.75;3.33;;;;;;;;;;5121197;27;20039;-63
2023/12/31 01:41:59;;;;;;;9.55;3.85;;;;;;;;;;5120104;27;20039;-63
2023/12/31 01:44:26;;;;;;;5.65;2.90;;;;;;;;;;5084382;27;21247;-63
2023/12/31 01:46:52;;;;;;;7.32;3.53;;;;;;;;;;5118283;27;20050;-63
2023/12/31 01:49:18;;;;;;;7.00;3.20;;;;;;;;;;5121042;27;20039;-63
2023/12/31 01:51:44;;;;;;;6.53;2.85;;;;;;;;;;5121730;27;20051;-63
2023/12/31 01:54:11;;;;;;;7.25;3.03;;;;;;;;;;5119303;27;20115;-63
2023/12/31 01:56:39;;;;;;;8.82;3.83;;;;;;;;;;5117184;27;20328;-63
2023/12/31 01:59:06;;;;;;;4.63;2.20;;;;;;;;;;5099272;27;20044;-63
2023/12/31 02:01:35;;;;;;;4.50;2.35;;;;;;;;;;5104567;27;20047;-63
2023/12/31 02:04:02;;;;;;;6.05;2.85;;;;;;;;;;5123120;27;20113;-63
2023/12/31 02:06:28;;;;;;;7.93;3.22;;;;;;;;;;5120851;27;20518;-63
2023/12/31 02:08:54;;;;;;;7.35;2.70;;;;;;;;;;5113471;27;20047;-63
2023/12/31 02:11:21;;;;;;;5.72;2.55;;;;;;;;;;5120323;27;20050;-64
2023/12/31 02:13:47;;;;;;;7.25;2.92;;;;;;;;;;5121158;27;20047;-63
2023/12/31 02:16:14;;;;;;;4.82;2.20;;;;;;;;;;5119253;27;20475;-63
2023/12/31 02:18:40;;;;;;;4.35;2.45;;;;;;;;;;5119350;27;20463;-63
2023/12/31 02:21:06;;;;;;;7.32;2.83;;;;;;;;;;5114886;27;20054;-63
2023/12/31 02:23:33;;;;;;;6.88;2.60;;;;;;;;;;5099509;27;20061;-64
2023/12/31 02:26:05;;;;;;;5.30;2.30;;;;;;;;;;5103895;27;20035;-64
2023/12/31 02:28:31;;;;;;;6.32;2.35;;;;;;;;;;5123589;27;20450;-63
2023/12/31 02:30:57;;;;;;;6.60;2.40;;;;;;;;;;5127891;27;20166;-63
2023/12/31 02:33:23;;;;;;;5.43;3.10;;;;;;;;;;5088851;27;20091;-63
2023/12/31 02:35:49;;;;;;;6.40;2.33;;;;;;;;;;5122110;27;20384;-63
2023/12/31 02:38:15;;;;;;;5.55;2.22;;;;;;;;;;5098125;27;20122;-63
2023/12/31 02:40:42;;;;;;;5.18;2.10;;;;;;;;;;5121605;27;20103;-63
2023/12/31 02:43:08;;;;;;;4.22;2.22;;;;;;;;;;5126037;27;20083;-63
2023/12/31 02:45:34;;;;;;;5.60;2.15;;;;;;;;;;5098284;27;20389;-63
2023/12/31 02:48:00;;;;;;;4.07;2.33;;;;;;;;;;5101175;27;20047;-63
2023/12/31 02:50:26;;;;;;;5.20;2.20;;;;;;;;;;5117151;27;20567;-63
2023/12/31 02:52:53;;;;;;;6.25;1.98;;;;;;;;;;5103051;27;21319;-63
2023/12/31 02:55:20;;;;;;;6.10;1.83;;;;;;;;;;5101684;27;20104;-64
2023/12/31 02:57:47;;;;;;;6.07;2.00;;;;;;;;;;5104005;27;20047;-63
2023/12/31 03:00:13;;;;;;;5.40;1.73;;;;;;;;;;5099492;27;20061;-63
2023/12/31 03:02:40;;;;;;;4.43;2.03;;;;;;;;;;5120472;27;20650;-63
2023/12/31 03:05:08;;;;;;;5.00;1.90;;;;;;;;;;5118428;27;20117;-63
2023/12/31 03:07:35;;;;;;;5.88;1.77;;;;;;;;;;5100583;27;20047;-63
2023/12/31 03:10:01;;;;;;;6.38;1.90;;;;;;;;;;5097163;27;20708;-63
2023/12/31 03:12:27;;;;;;;3.47;1.45;;;;;;;;;;5119420;27;20122;-63
2023/12/31 03:14:54;;;;;;;3.78;1.85;;;;;;;;;;5118645;27;20042;-63
2023/12/31 03:17:20;;;;;;;5.72;1.90;;;;;;;;;;5120855;27;20047;-63
2023/12/31 03:19:47;;;;;;;3.45;1.63;;;;;;;;;;5101684;27;20482;-63
2023/12/31 03:22:13;;;;;;;3.72;1.77;;;;;;;;;;5102251;27;20123;-63
2023/12/31 03:24:41;;;;;;;4.03;1.73;;;;;;;;;;5124767;27;20046;-63
2023/12/31 03:27:09;;;;;;;3.63;1.50;;;;;;;;;;5102254;27;20250;-63
2023/12/31 03:29:35;;;;;;;5.35;1.40;;;;;;;;;;5101082;27;20088;-64
2023/12/31 03:32:02;;;;;;;2.88;1.60;;;;;;;;;;5120787;27;20046;-63
2023/12/31 03:34:28;;;;;;;7.13;1.40;;;;;;;;;;5096902;27;20043;-63
2023/12/31 03:36:55;;;;;;;3.60;1.80;;;;;;;;;;5119811;27;20050;-63
2023/12/31 03:39:22;;;;;;;3.92;1.85;;;;;;;;;;5099441;27;20110;-63
2023/12/31 03:41:49;;;;;;;3.45;1.30;;;;;;;;;;5120561;27;20043;-63
2023/12/31 03:44:15;;;;;;;2.85;1.20;;;;;;;;;;5097008;27;20074;-63
2023/12/31 03:46:42;;;;;;;6.22;1.65;;;;;;;;;;5120671;27;20063;-63
2023/12/31 03:49:08;;;;;;;3.15;1.50;;;;;;;;;;5100073;27;20170;-63
2023/12/31 03:51:34;;;;;;;3.08;1.42;;;;;;;;;;5119003;27;20032;-63
2023/12/31 03:54:00;;;;;;;2.67;1.25;;;;;;;;;;5124702;27;20139;-63
2023/12/31 03:56:27;;;;;;;9.00;1.45;;;;;;;;;;5119622;27;21545;-63
2023/12/31 03:58:53;;;;;;;7.47;1.63;;;;;;;;;;5079085;27;20150;-63
2023/12/31 04:01:19;;;;;;;4.38;1.63;;;;;;;;;;5095784;27;20047;-63
2023/12/31 04:03:45;;;;;;;3.63;1.42;;;;;;;;;;5120731;27;20050;-63
2023/12/31 04:06:11;;;;;;;5.05;1.30;;;;;;;;;;5116249;27;20035;-63
2023/12/31 04:08:37;;;;;;;2.85;1.33;;;;;;;;;;5103520;27;20055;-63
2023/12/31 04:11:04;;;;;;;3.40;1.20;;;;;;;;;;5103862;27;20114;-63
2023/12/31 04:13:30;;;;;;;3.05;1.67;;;;;;;;;;5096763;28;20055;-63
2023/12/31 04:15:56;;;;;;;2.97;1.48;;;;;;;;;;5099022;27;20054;-64
2023/12/31 04:18:22;;;;;;;3.85;1.20;;;;;;;;;;5118718;27;20394;-63
2023/12/31 04:20:48;;;;;;;4.68;1.50;;;;;;;;;;5113949;27;20126;-63
2023/12/31 04:23:15;;;;;;;5.28;1.30;;;;;;;;;;5098997;27;20107;-63
2023/12/31 04:25:41;;;;;;;4.30;1.65;;;;;;;;;;5102842;27;20375;-63
2023/12/31 04:28:07;;;;;;;6.32;1.65;;;;;;;;;;5100775;27;20059;-63
2023/12/31 04:30:33;;;;;;;3.60;1.50;;;;;;;;;;5099752;28;20494;-64
2023/12/31 04:32:59;;;;;;;7.35;1.48;;;;;;;;;;5096446;27;20039;-63
2023/12/31 04:35:25;;;;;;;4.47;1.50;;;;;;;;;;5104332;27;20457;-63
2023/12/31 04:37:52;;;;;;;4.50;1.55;;;;;;;;;;5119147;28;20039;-63
2023/12/31 04:40:18;;;;;;;3.72;1.58;;;;;;;;;;5100433;28;20383;-63
2023/12/31 04:42:44;;;;;;;6.05;1.50;;;;;;;;;;5100276;28;20071;-63
2023/12/31 04:45:11;;;;;;;4.18;1.70;;;;;;;;;;5114419;27;20054;-63
2023/12/31 04:47:37;;;;;;;4.20;2.10;;;;;;;;;;5100269;27;20043;-63
2023/12/31 04:50:03;;;;;;;5.20;2.25;;;;;;;;;;5083879;27;20031;-63
2023/12/31 04:52:30;;;;;;;8.35;2.20;;;;;;;;;;5117535;27;20166;-63
2023/12/31 04:54:56;;;;;;;7.60;2.33;;;;;;;;;;5097567;28;20477;-63
2023/12/31 04:57:22;;;;;;;5.55;2.38;;;;;;;;;;5097341;27;20043;-63
2023/12/31 04:59:49;;;;;;;4.60;1.73;;;;;;;;;;5094588;28;20501;-64
2023/12/31 05:02:15;;;;;;;4.72;1.90;;;;;;;;;;5097085;28;20120;-63
2023/12/31 05:04:41;;;;;;;5.85;2.10;;;;;;;;;;5097850;28;20512;-63
2023/12/31 05:07:09;;;;;;;5.25;2.00;;;;;;;;;;5119881;27;20127;-63
2023/12/31 05:09:35;;;;;;;5.57;2.13;;;;;;;;;;5121275;27;20493;-63
2023/12/31 05:12:02;;;;;;;6.20;2.30;;;;;;;;;;5117079;27;20050;-63
2023/12/31 05:14:28;;;;;;;5.53;2.10;;;;;;;;;;5120328;27;20156;-63
2023/12/31 05:16:54;;;;;;;4.57;1.80;;;;;;;;;;5100461;27;20047;-63
2023/12/31 05:19:20;;;;;;;4.93;1.88;;;;;;;;;;5117574;27;20503;-63
2023/12/31 05:21:46;;;;;;;3.25;1.92;;;;;;;;;;5100971;27;20040;-63
2023/12/31 05:24:12;;;;;;;3.78;1.80;;;;;;;;;;5095572;28;20104;-63
2023/12/31 05:26:39;;;;;;;5.43;2.10;;;;;;;;;;5100712;28;20054;-63
2023/12/31 05:29:05;;;;;;;5.00;1.83;;;;;;;;;;5119277;27;20565;-64
2023/12/31 05:31:31;;;;;;;5.95;1.98;;;;;;;;;;5121348;27;20051;-63
2023/12/31 05:33:57;;;;;;;5.05;2.00;;;;;;;;;;5098317;28;20500;-63
2023/12/31 05:36:23;;;;;;;5.72;2.08;;;;;;;;;;5094861;27;20140;-63
2023/12/31 05:38:50;;;;;;;4.05;1.80;;;;;;;;;;5103707;27;20047;-63
2023/12/31 05:41:16;;;;;;;4.38;1.77;;;;;;;;;;5103320;27;20050;-63
2023/12/31 05:43:42;;;;;;;6.03;2.13;;;;;;;;;;5105208;27;20066;-63
2023/12/31 05:46:09;;;;;;;4.15;1.67;;;;;;;;;;5118574;27;20132;-63
2023/12/31 05:48:35;;;;;;;6.20;1.88;;;;;;;;;;5125116;27;20035;-63
2023/12/31 05:51:01;;;;;;;5.25;1.75;;;;;;;;;;5096375;27;20446;-63
2023/12/31 05:53:27;;;;;;;5.88;2.00;;;;;;;;;;5099336;27;20112;-63
2023/12/31 05:55:53;;;;;;;4.75;1.52;;;;;;;;;;5123232;27;20489;-63
2023/12/31 05:58:20;;;;;;;3.67;1.65;;;;;;;;;;5124983;27;20039;-63
2023/12/31 06:00:46;;;;;;;6.07;1.80;;;;;;;;;;5098873;27;20115;-63
2023/12/31 06:03:13;;;;;;;4.45;1.88;;;;;;;;;;5103881;27;20105;-63
2023/12/31 06:05:39;;;;;;;4.53;1.63;;;;;;;;;;5098634;27;20070;-64
2023/12/31 06:08:05;;;;;;;5.22;1.40;;;;;;;;;;5104544;27;20393;-63
2023/12/31 06:10:31;;;;;;;4.15;1.65;;;;;;;;;;5123497;27;20054;-63
2023/12/31 06:12:58;;;;;;;5.00;1.70;;;;;;;;;;5123826;27;20126;-63
2023/12/31 06:15:24;;;;;;;5.88;1.98;;;;;;;;;;5119176;27;20118;-63
2023/12/31 06:17:51;;;;;;;6.75;2.13;;;;;;;;;;5102405;27;20155;-63
2023/12/31 06:20:17;;;;;;;4.63;1.70;;;;;;;;;;5104978;27;20043;-63
2023/12/31 06:22:43;;;;;;;3.80;1.88;;;;;;;;;;5104120;27;20118;-63
2023/12/31 06:25:10;;;;;;;4.20;1.77;;;;;;;;;;5119819;27;20039;-63
2023/12/31 06:27:38;;;;;;;6.35;2.22;;;;;;;;;;5103328;27;20059;-63
2023/12/31 06:30:04;;;;;;;4.30;2.10;;;;;;;;;;5125691;27;20135;-63
2023/12/31 06:32:32;;;;;;;4.47;1.90;;;;;;;;;;5102305;27;20135;-63
2023/12/31 06:34:58;;;;;;;7.70;2.25;;;;;;;;;;5123817;27;20066;-63
2023/12/31 06:37:25;;;;;;;5.82;2.35;;;;;;;;;;5118129;27;20035;-63
2023/12/31 06:39:51;;;;;;;4.45;2.25;;;;;;;;;;5123096;27;20039;-63
2023/12/31 06:42:18;;;;;;;5.72;2.22;;;;;;;;;;5100730;27;20051;-63
2023/12/31 06:44:44;;;;;;;4.55;2.42;;;;;;;;;;5101564;27;20047;-63
2023/12/31 06:47:10;;;;;;;4.88;2.35;;;;;;;;;;5095764;27;20224;-63
2023/12/31 06:49:37;;;;;;;4.95;2.45;;;;;;;;;;5098048;27;21152;-63
2023/12/31 06:52:04;;;;;;;5.78;2.90;;;;;;;;;;5120049;27;20542;-63
2023/12/31 06:54:30;;;;;;;7.32;2.75;;;;;;;;;;5116150;27;21234;-63
2023/12/31 06:56:56;;;;;;;6.15;2.88;;;;;;;;;;5123721;27;20066;-63
2023/12/31 06:59:22;;;;;;;5.45;2.78;;;;;;;;;;5120431;27;20602;-63
2023/12/31 07:01:48;;;;;;;5.35;2.90;;;;;;;;;;5085014;27;20515;-63
2023/12/31 07:04:14;;;;;;;6.18;2.85;;;;;;;;;;5102375;27;20051;-63
2023/12/31 07:06:40;;;;;;;6.50;3.17;;;;;;;;;;5100480;27;20123;-63
2023/12/31 07:09:07;;;;;;;5.53;2.97;;;;;;;;;;5117064;27;20502;-63
2023/12/31 07:11:33;;;;;;;5.68;2.63;;;;;;;;;;5097344;27;20039;-63
2023/12/31 07:13:59;;;;;;;6.28;2.55;;;;;;;;;;5114686;27;20052;-63
2023/12/31 07:16:26;;;;;;;5.40;2.42;;;;;;;;;;5098896;27;20091;-63
2023/12/31 07:18:52;;;;;;;5.93;2.70;;;;;;;;;;5122260;27;20035;-63
2023/12/31 07:21:23;;;;;;;5.00;2.63;;;;;;;;;;5103881;27;20427;-63
2023/12/31 07:23:49;;;;;;;5.28;2.47;;;;;;;;;;5124984;27;20410;-63
2023/12/31 07:26:26;;;;;;;5.85;2.70;;;;;;;;;;5123174;27;20114;-63
2023/12/31 07:28:52;;;;;;;7.43;3.03;;;;;;;;;;5098243;27;20065;-64
2023/12/31 07:31:18;;;;;;;4.05;2.20;;;;;;;;;;5100874;27;20119;-64
2023/12/31 07:33:44;;;;;;;4.25;2.10;;;;;;;;;;5125585;27;20134;-63
2023/12/31 07:36:11;;;;;;;4.70;2.40;;;;;;;;;;5125030;27;20051;-63
2023/12/31 07:38:37;;;;;;;5.03;2.35;;;;;;;;;;5109898;27;20047;-63
2023/12/31 07:41:03;;;;;;;5.32;2.85;;;;;;;;;;5128596;27;20178;-63
2023/12/31 07:43:30;;;;;;;3.95;1.95;;;;;;;;;;5128762;27;20127;-63
2023/12/31 07:45:57;;;;;;;5.53;2.35;;;;;;;;;;5128021;27;20076;-63
2023/12/31 07:48:24;;;;;;;4.80;2.28;;;;;;;;;;5105369;27;20490;-63
2023/12/31 07:50:50;;;;;;;7.95;2.55;;;;;;;;;;5110491;27;20114;-63
2023/12/31 07:53:16;;;;;;;4.25;2.30;;;;;;;;;;5101386;27;20043;-63
2023/12/31 07:55:43;;;;;;;3.92;2.30;;;;;;;;;;5102079;27;20405;-63
2023/12/31 07:58:09;;;;;;;5.55;2.40;;;;;;;;;;5122136;27;20054;-63
2023/12/31 08:00:36;;;;;;;4.70;2.47;;;;;;;;;;5079615;28;20370;-63
2023/12/31 08:03:02;;;;;;;4.90;2.47;;;;;;;;;;5114321;27;20035;-63
2023/12/31 08:05:30;;;;;;;9.65;2.50;;;;;;;;;;5118282;27;21544;-62
2023/12/31 08:07:56;;;;;;;4.88;2.38;;;;;;;;;;5124439;27;20043;-63
2023/12/31 08:10:22;;;;;;;4.68;2.20;;;;;;;;;;5105585;27;20478;-63
2023/12/31 08:12:49;;;;;;;6.00;2.72;;;;;;;;;;5126727;27;20082;-63
2023/12/31 08:15:15;;;;;;;6.30;2.25;;;;;;;;;;5103081;27;20471;-63
2023/12/31 08:17:44;;;;;;;4.95;2.58;;;;;;;;;;5105214;27;20053;-63
2023/12/31 08:20:10;;;;;;;4.22;2.00;;;;;;;;;;5097103;27;20277;-63
2023/12/31 08:22:37;;;;;;;6.00;2.58;;;;;;;;;;5122027;27;20382;-64
2023/12/31 08:25:03;;;;;;;5.28;2.72;;;;;;;;;;5097780;28;20225;-64
2023/12/31 08:27:29;;;;;;;7.20;2.60;;;;;;;;;;5103261;27;20435;-64
2023/12/31 08:29:55;;;;;;;5.88;2.65;;;;;;;;;;5120087;27;21871;-63
2023/12/31 08:32:26;;;;;;;5.07;2.28;;;;;;;;;;5118455;27;20047;-63
2023/12/31 08:34:53;;;;;;;4.78;2.58;;;;;;;;;;5116729;27;20039;-63
2023/12/31 08:37:19;;;;;;;6.75;3.03;;;;;;;;;;5115672;27;20062;-63
2023/12/31 08:39:45;;;;;;;4.95;2.55;;;;;;;;;;5098116;28;20038;-63
2023/12/31 08:42:11;;;;;;;5.53;2.83;;;;;;;;;;5100625;27;20035;-63
2023/12/31 08:44:38;;;;;;;6.30;2.15;;;;;;;;;;5097613;28;20043;-63
2023/12/31 08:47:04;;;;;;;5.30;3.00;;;;;;;;;;5098642;28;20047;-64
2023/12/31 08:49:30;;;;;;;5.00;2.70;;;;;;;;;;5121262;27;20118;-64
2023/12/31 08:51:56;;;;;;;5.72;2.92;;;;;;;;;;5120509;28;20113;-64
2023/12/31 08:54:22;;;;;;;5.38;2.65;;;;;;;;;;5116137;28;20058;-63
2023/12/31 08:56:49;;;;;;;4.25;1.98;;;;;;;;;;5119392;27;20039;-64
2023/12/31 08:59:15;;;;;;;7.07;2.78;;;;;;;;;;5097035;28;20062;-63
2023/12/31 09:01:41;;;;;;;4.85;2.60;;;;;;;;;;5100431;27;20046;-63
2023/12/31 09:04:09;;;;;;;5.10;2.92;;;;;;;;;;5120741;27;20065;-63
2023/12/31 09:06:35;;;;;;;4.70;2.83;;;;;;;;;;5118782;27;20570;-63
2023/12/31 09:09:01;;;;;;;4.40;2.28;;;;;;;;;;5096934;27;20109;-63
2023/12/31 09:11:27;;;;;;;4.45;2.53;;;;;;;;;;5117845;27;20035;-63
2023/12/31 09:13:53;;;;;;;9.68;2.58;;;;;;;;;;5105492;27;20053;-63
2023/12/31 09:16:20;;;;;;;5.90;2.60;;;;;;;;;;5127924;27;20126;-63
2023/12/31 09:18:46;;;;;;;5.75;3.40;;;;;;;;;;5121988;27;20082;-63
2023/12/31 09:21:12;;;;;;;6.35;3.33;;;;;;;;;;5102105;27;20543;-63
2023/12/31 09:23:38;;;;;;;6.90;3.47;;;;;;;;;;5105092;27;20114;-63
2023/12/31 09:26:04;;;;;;;5.55;3.45;;;;;;;;;;5104433;27;20095;-63
2023/12/31 09:28:31;;;;;;;7.15;3.28;;;;;;;;;;5105418;27;20047;-63
2023/12/31 09:30:57;;;;;;;5.93;3.25;;;;;;;;;;5103925;27;20122;-63
2023/12/31 09:33:23;;;;;;;4.93;2.80;;;;;;;;;;5123282;27;20050;-63
2023/12/31 09:35:49;;;;;;;6.18;3.22;;;;;;;;;;5122646;27;20031;-63
2023/12/31 09:38:15;;;;;;;6.78;3.20;;;;;;;;;;5123130;27;20466;-63
2023/12/31 09:40:43;;;;;;;9.50;4.18;;;;;;;;;;5125463;27;20092;-63
2023/12/31 09:43:10;;;;;;;7.82;3.38;;;;;;;;;;5122255;27;20070;-63
2023/12/31 09:45:36;;;;;;;6.32;3.28;;;;;;;;;;5104995;27;20046;-64
2023/12/31 09:48:03;;;;;;;8.02;3.97;;;;;;;;;;5099179;27;20035;-63
2023/12/31 09:50:30;;;;;;;7.20;3.83;;;;;;;;;;5121000;27;20051;-62
2023/12/31 09:52:57;;;;;;;6.72;3.45;;;;;;;;;;5085660;27;20047;-63
2023/12/31 09:55:24;;;;;;;6.15;3.55;;;;;;;;;;5105913;27;20055;-63
2023/12/31 09:57:53;;;;;;;5.43;3.42;;;;;;;;;;5121057;27;20043;-63
2023/12/31 10:00:20;;;;;;;6.28;3.25;;;;;;;;;;5121675;27;20039;-63
2023/12/31 10:02:46;;;;;;;7.20;3.65;;;;;;;;;;5102961;27;20479;-62
2023/12/31 10:05:12;;;;;;;7.93;4.15;;;;;;;;;;5104570;27;20383;-62
2023/12/31 10:07:39;;;;;;;6.18;4.07;;;;;;;;;;5125583;27;20113;-62
2023/12/31 10:10:06;;;;;;;10.13;3.85;;;;;;;;;;5124571;27;20074;-62
2023/12/31 10:12:33;;;;;;;7.18;4.43;;;;;;;;;;5101525;27;20075;-62
2023/12/31 10:14:59;;;;;;;6.95;4.20;;;;;;;;;;5123204;27;20384;-62
2023/12/31 10:17:26;;;;;;;9.68;3.88;;;;;;;;;;5117134;27;20040;-63
2023/12/31 10:19:52;;;;;;;6.80;4.22;;;;;;;;;;5103711;27;20108;-63
2023/12/31 10:22:19;;;;;;;7.57;3.55;;;;;;;;;;5104330;27;20075;-63
2023/12/31 10:24:45;;;;;;;7.88;4.38;;;;;;;;;;5100841;27;20050;-63
2023/12/31 10:27:12;;;;;;;7.88;3.88;;;;;;;;;;5081351;27;20035;-63
2023/12/31 10:29:38;;;;;;;7.68;4.22;;;;;;;;;;5124981;27;20511;-63
2023/12/31 10:32:06;;;;;;;7.03;4.07;;;;;;;;;;5124659;27;20073;-64
2023/12/31 10:34:32;;;;;;;7.45;4.10;;;;;;;;;;5121836;27;20485;-63
2023/12/31 10:37:05;;;;;;;7.35;4.18;;;;;;;;;;5124783;27;20566;-63
2023/12/31 10:39:33;;;;;;;8.68;3.78;;;;;;;;;;5120589;27;20081;-63
2023/12/31 10:42:00;;;;;;;5.10;3.10;;;;;;;;;;5100773;27;20043;-64
2023/12/31 10:44:26;;;;;;;9.10;4.03;;;;;;;;;;5104384;27;20585;-63
2023/12/31 10:46:53;;;;;;;6.78;4.28;;;;;;;;;;5099300;27;20153;-63
2023/12/31 10:49:22;;;;;;;8.68;4.10;;;;;;;;;;5119568;27;20399;-66
2023/12/31 10:51:53;;;;;;;8.30;3.70;;;;;;;;;;5101259;27;20039;-65
2023/12/31 10:54:26;;;;;;;11.23;4.50;;;;;;;;;;5100748;27;20047;-64
2023/12/31 10:56:54;;;;;;;10.57;4.28;;;;;;;;;;5099668;27;20051;-64
2023/12/31 10:59:21;;;;;;;8.82;4.47;;;;;;;;;;5100508;27;20126;-69
2023/12/31 11:01:48;;;;;;;8.07;4.88;;;;;;;;;;5099944;27;20039;-67
2023/12/31 11:04:16;;;;;;;6.85;2.35;;;;;;;;;;5122749;27;20122;-70
2023/12/31 11:06:42;;;;;;;5.88;2.20;;;;;;;;;;5100989;27;20047;-63
2023/12/31 11:09:09;;;;;;;6.00;1.98;;;;;;;;;;5104686;27;20158;-63
2023/12/31 11:11:36;;;;;;;4.28;1.58;;;;;;;;;;5099446;27;20126;-63
2023/12/31 11:14:04;;;;;;;7.22;1.67;;;;;;;;;;5126717;27;20439;-64
2023/12/31 11:16:52;;;;;;;6.75;1.60;;;;;;;;;;5099318;27;20374;-65
2023/12/31 11:19:27;;;;;;;5.38;1.58;;;;;;;;;;5119680;27;20344;-64
2023/12/31 11:21:58;;;;;;;4.95;1.38;;;;;;;;;;5118629;27;20039;-65
2023/12/31 11:24:25;;;;;;;3.85;1.00;;;;;;;;;;5099560;27;20065;-64
2023/12/31 11:27:15;;;;;;;3.70;1.33;;;;;;;;;;5098147;27;20039;-64
2023/12/31 11:29:42;;;;;;;4.13;1.23;;;;;;;;;;5100881;27;20152;-65
2023/12/31 11:32:09;;;;;;;3.60;1.30;;;;;;;;;;5120981;27;20072;-64
2023/12/31 11:34:36;;;;;;;3.67;0.93;;;;;;;;;;5097066;27;20055;-65
2023/12/31 11:37:03;;;;;;;4.18;1.33;;;;;;;;;;5119656;27;20130;-65
2023/12/31 11:39:31;;;;;;;4.28;0.90;;;;;;;;;;5096964;27;20043;-64
2023/12/31 11:42:00;;;;;;;4.13;1.15;;;;;;;;;;5117852;27;20409;-64
2023/12/31 11:44:36;;;;;;;7.65;1.92;;;;;;;;;;5120835;27;20042;-64
2023/12/31 11:47:02;;;;;;;6.97;1.55;;;;;;;;;;5124607;27;20043;-64
2023/12/31 11:49:30;;;;;;;5.03;1.52;;;;;;;;;;5104331;27;20049;-64
2023/12/31 11:51:57;;;;;;;4.38;1.08;;;;;;;;;;5123568;27;20183;-64
2023/12/31 11:54:24;;;;;;;4.63;1.50;;;;;;;;;;5102050;27;20043;-64
2023/12/31 11:56:52;;;;;;;4.45;1.00;;;;;;;;;;5120994;27;20039;-65
2023/12/31 11:59:19;;;;;;;4.82;1.20;;;;;;;;;;5098124;27;20494;-64
2023/12/31 12:01:45;;;;;;;5.75;1.65;;;;;;;;;;5117313;27;20035;-71
2023/12/31 12:04:12;;;;;;;5.57;1.20;;;;;;;;;;5110589;27;20043;-64
2023/12/31 12:06:39;;;;;;;4.45;1.08;;;;;;;;;;5119327;27;20122;-64
2023/12/31 12:09:05;;;;;;;6.80;1.60;;;;;;;;;;5095370;27;20088;-64
2023/12/31 12:11:32;;;;;;;6.07;1.40;;;;;;;;;;5097327;27;20126;-64
2023/12/31 12:13:58;;;;;;;6.47;1.48;;;;;;;;;;5115835;27;20039;-63
2023/12/31 12:16:28;;;;;;;5.43;1.50;;;;;;;;;;5115838;27;20399;-63
2023/12/31 12:18:58;;;;;;;3.47;0.90;;;;;;;;;;5100335;27;20135;-63
2023/12/31 12:21:25;;;;;;;4.60;0.98;;;;;;;;;;5097161;28;20130;-62
2023/12/31 12:23:52;;;;;;;3.58;0.95;;;;;;;;;;5084382;27;20499;-63
2023/12/31 12:26:18;;;;;;;4.65;0.95;;;;;;;;;;5100377;27;20391;-63
2023/12/31 12:28:47;;;;;;;4.35;1.13;;;;;;;;;;5101014;27;20043;-63
2023/12/31 12:31:15;;;;;;;4.25;1.13;;;;;;;;;;5102165;27;20051;-63
2023/12/31 12:33:44;;;;;;;2.00;0.88;;;;;;;;;;5101992;27;20062;-63
2023/12/31 12:36:10;;;;;;;3.63;1.20;;;;;;;;;;5114426;27;20406;-63
2023/12/31 12:38:37;;;;;;;4.53;1.23;;;;;;;;;;5100473;27;20466;-63
2023/12/31 12:41:04;;;;;;;4.30;1.10;;;;;;;;;;5115761;27;20031;-63
2023/12/31 12:43:32;;;;;;;4.22;1.10;;;;;;;;;;5098950;27;20104;-63
2023/12/31 12:46:06;;;;;;;3.40;1.20;;;;;;;;;;5121949;27;20099;-62
2023/12/31 12:48:34;;;;;;;6.45;1.45;;;;;;;;;;5125534;27;20427;-62
2023/12/31 12:51:00;;;;;;;4.50;1.35;;;;;;;;;;5103772;27;20049;-62
2023/12/31 12:53:26;;;;;;;6.25;1.40;;;;;;;;;;5103310;27;20119;-66
2023/12/31 12:55:53;;;;;;;3.58;1.40;;;;;;;;;;5103858;27;20482;-62
2023/12/31 12:58:19;;;;;;;3.47;1.55;;;;;;;;;;5129221;27;20062;-62
2023/12/31 13:00:45;;;;;;;5.45;1.60;;;;;;;;;;5128781;27;20035;-62
2023/12/31 13:03:11;;;;;;;3.35;1.35;;;;;;;;;;5128578;27;20122;-62
2023/12/31 13:05:38;;;;;;;9.23;2.20;;;;;;;;;;5106759;27;20104;-62
2023/12/31 13:08:04;;;;;;;12.98;1.52;;;;;;;;;;5103616;27;20040;-62
2023/12/31 13:10:30;;;;;;;8.70;1.45;;;;;;;;;;5123714;27;20065;-63
2023/12/31 13:12:57;;;;;;;8.95;1.23;;;;;;;;;;5101322;27;20098;-63
2023/12/31 13:15:23;;;;;;;9.30;1.30;;;;;;;;;;5105563;27;20099;-63
2023/12/31 13:17:49;;;;;;;7.57;1.77;;;;;;;;;;5103929;27;20049;-63
2023/12/31 13:20:15;;;;;;;8.20;1.25;;;;;;;;;;5126635;27;20486;-63
2023/12/31 13:22:42;;;;;;;11.85;2.30;;;;;;;;;;5126681;27;20042;-63
2023/12/31 13:25:09;;;;;;;6.70;1.20;;;;;;;;;;5108937;27;20572;-62
2023/12/31 13:27:35;;;;;;;9.40;2.72;;;;;;;;;;5106870;27;20104;-63
2023/12/31 13:30:02;;;;;;;9.38;1.10;;;;;;;;;;5102158;27;20122;-63
2023/12/31 13:32:28;;;;;;;11.73;1.35;;;;;;;;;;5123297;27;20440;-62
2023/12/31 13:34:54;;;;;;;10.70;1.85;;;;;;;;;;5103037;27;20048;-63
2023/12/31 13:37:20;;;;;;;8.60;1.85;;;;;;;;;;5098759;27;20130;-62
2023/12/31 13:39:46;;;;;;;7.68;1.30;;;;;;;;;;5121925;27;20043;-62
2023/12/31 13:42:13;;;;;;;6.25;1.20;;;;;;;;;;5120135;27;20606;-63
2023/12/31 13:44:39;;;;;;;7.55;1.20;;;;;;;;;;5099952;27;20107;-63
2023/12/31 13:47:05;;;;;;;7.93;1.30;;;;;;;;;;5115700;27;20458;-62
2023/12/31 13:49:32;;;;;;;5.55;0.80;;;;;;;;;;5119267;27;20051;-62
2023/12/31 13:51:58;;;;;;;8.23;2.38;;;;;;;;;;5101339;27;20154;-63
2023/12/31 13:54:25;;;;;;;7.70;1.73;;;;;;;;;;5102149;27;20044;-63
2023/12/31 13:56:52;;;;;;;7.70;2.72;;;;;;;;;;5105467;27;20040;-63
2023/12/31 13:59:18;;;;;;;6.45;1.33;;;;;;;;;;5100240;27;20047;-63
2023/12/31 14:01:44;;;;;;;4.57;1.35;;;;;;;;;;5108356;27;20129;-62
2023/12/31 14:04:10;;;;;;;7.13;1.02;;;;;;;;;;5107376;27;20047;-63
2023/12/31 14:06:39;;;;;;;8.27;1.58;;;;;;;;;;5123084;27;20035;-63
2023/12/31 14:09:05;;;;;;;15.48;1.50;;;;;;;;;;5121715;27;20466;-62
2023/12/31 14:11:31;;;;;;;12.77;1.67;;;;;;;;;;5104594;27;20486;-62
2023/12/31 14:13:57;;;;;;;8.88;1.48;;;;;;;;;;5117052;27;20181;-62
2023/12/31 14:16:24;;;;;;;8.13;1.65;;;;;;;;;;5121135;27;20031;-62
2023/12/31 14:18:50;;;;;;;10.07;1.88;;;;;;;;;;5118273;27;20133;-62
2023/12/31 14:21:16;;;;;;;6.75;1.70;;;;;;;;;;5100786;27;20043;-62
2023/12/31 14:23:42;;;;;;;6.93;2.08;;;;;;;;;;5101675;27;20074;-62
2023/12/31 14:26:08;;;;;;;9.93;2.10;;;;;;;;;;5103015;27;20157;-62
2023/12/31 14:28:35;;;;;;;6.93;2.53;;;;;;;;;;5099963;27;20074;-62
2023/12/31 14:31:01;;;;;;;5.65;2.00;;;;;;;;;;5122754;27;20059;-62
2023/12/31 14:33:27;;;;;;;11.48;2.03;;;;;;;;;;5123760;27;20055;-62
2023/12/31 14:35:55;;;;;;;10.32;1.83;;;;;;;;;;5105683;27;20055;-62
2023/12/31 14:38:21;;;;;;;9.13;2.15;;;;;;;;;;5100147;27;20075;-62
2023/12/31 14:40:47;;;;;;;10.20;1.75;;;;;;;;;;5107263;27;20043;-62